createdAt,value
2023-04-23T00:00:19.437Z,99217.59
2023-04-23T00:02:50.056Z,99128.28
2023-04-23T00:05:17.184Z,99244.09
2023-04-23T00:07:44.185Z,99259.88
2023-04-23T00:10:11.587Z,99215.22
2023-04-23T00:12:39.086Z,99189.19
2023-04-23T00:15:07.134Z,99184.09
2023-04-23T00:17:33.900Z,99188.00
2023-04-23T00:20:00.891Z,99203.06
2023-04-23T00:22:27.827Z,99289.13
2023-04-23T00:24:54.760Z,99206.91
2023-04-23T00:27:21.593Z,99235.44
2023-04-23T00:29:48.439Z,99289.28
2023-04-23T00:32:15.211Z,99148.84
2023-04-23T00:34:42.111Z,99207.78
2023-04-23T00:37:09.099Z,99266.13
2023-04-23T00:39:37.700Z,99264.81
2023-04-23T00:42:11.609Z,99260.56
2023-04-23T00:44:44.460Z,99260.75
2023-04-23T00:47:12.367Z,99267.97
2023-04-23T00:49:39.579Z,99260.22
2023-04-23T00:52:06.824Z,99271.88
2023-04-23T00:54:33.801Z,99280.63
2023-04-23T00:57:00.797Z,99273.84
2023-04-23T00:59:28.525Z,99264.25
2023-04-23T01:01:55.960Z,99273.41
2023-04-23T01:04:22.975Z,99270.38
2023-04-23T01:06:49.775Z,99277.56
2023-04-23T01:09:18.269Z,99265.34
2023-04-23T01:11:45.000Z,99284.13
2023-04-23T01:14:12.162Z,99262.31
2023-04-23T01:16:39.215Z,99292.69
2023-04-23T01:19:06.997Z,99252.28
2023-04-23T01:21:35.317Z,99283.09
2023-04-23T01:24:03.443Z,99273.19
2023-04-23T01:26:30.292Z,99273.53
2023-04-23T01:28:57.697Z,99289.50
2023-04-23T01:31:24.473Z,99264.81
2023-04-23T01:33:52.179Z,99255.50
2023-04-23T01:36:19.828Z,99262.09
2023-04-23T01:38:46.686Z,99272.75
2023-04-23T01:41:13.435Z,99287.13
2023-04-23T01:43:42.051Z,99278.84
2023-04-23T01:46:08.775Z,99279.50
2023-04-23T01:48:35.778Z,99280.22
2023-04-23T01:51:02.395Z,99288.66
2023-04-23T01:53:29.106Z,99269.25
2023-04-23T01:55:56.867Z,99285.69
2023-04-23T01:58:24.145Z,99267.75
2023-04-23T02:00:50.949Z,99281.28
2023-04-23T02:03:17.900Z,99261.91
2023-04-23T02:05:44.863Z,99278.00
2023-04-23T02:08:11.806Z,99287.19
2023-04-23T02:10:38.468Z,99281.53
2023-04-23T02:13:05.240Z,99275.97
2023-04-23T02:15:32.747Z,99289.84
2023-04-23T02:17:59.473Z,99289.34
2023-04-23T02:20:26.445Z,99288.69
2023-04-23T02:22:53.252Z,99292.41
2023-04-23T02:25:22.049Z,99294.44
2023-04-23T02:27:49.221Z,99287.69
2023-04-23T02:30:16.255Z,99298.69
2023-04-23T02:32:44.089Z,99312.66
2023-04-23T02:35:10.968Z,99285.97
2023-04-23T02:37:37.744Z,99316.53
2023-04-23T02:40:08.279Z,99315.84
2023-04-23T02:42:35.188Z,99298.19
2023-04-23T02:45:01.804Z,99300.91
2023-04-23T02:47:28.750Z,99295.28
2023-04-23T02:49:55.454Z,99282.59
2023-04-23T02:52:22.106Z,99315.09
2023-04-23T02:54:48.738Z,99323.16
2023-04-23T02:57:16.594Z,99333.88
2023-04-23T02:59:43.593Z,99313.47
2023-04-23T03:02:10.534Z,99335.84
2023-04-23T03:04:37.439Z,99325.66
2023-04-23T03:07:04.146Z,99307.72
2023-04-23T03:09:30.767Z,99312.22
2023-04-23T03:11:57.825Z,99312.97
2023-04-23T03:14:24.498Z,99344.47
2023-04-23T03:16:51.194Z,99325.06
2023-04-23T03:19:17.988Z,99350.81
2023-04-23T03:21:44.645Z,99355.13
2023-04-23T03:24:14.068Z,99354.88
2023-04-23T03:26:41.116Z,99357.09
2023-04-23T03:29:07.996Z,99363.25
2023-04-23T03:31:34.655Z,99359.47
2023-04-23T03:34:01.561Z,99362.84
2023-04-23T03:36:28.214Z,99344.38
2023-04-23T03:38:54.898Z,99363.09
2023-04-23T03:41:21.619Z,99377.34
2023-04-23T03:43:48.296Z,99374.19
2023-04-23T03:46:15.005Z,99396.00
2023-04-23T03:48:41.739Z,99383.38
2023-04-23T03:51:08.398Z,99373.28
2023-04-23T03:53:35.113Z,99382.16
2023-04-23T03:56:01.899Z,99344.81
2023-04-23T03:58:28.583Z,99364.81
2023-04-23T04:00:56.089Z,99382.78
2023-04-23T04:03:22.957Z,99360.16
2023-04-23T04:05:49.793Z,99385.41
2023-04-23T04:08:16.439Z,99377.31
2023-04-23T04:10:43.110Z,99394.34
2023-04-23T04:13:09.776Z,99382.47
2023-04-23T04:15:36.540Z,99390.88
2023-04-23T04:18:03.671Z,99394.31
2023-04-23T04:20:30.296Z,99368.78
2023-04-23T04:22:57.062Z,99374.28
2023-04-23T04:25:24.279Z,99379.81
2023-04-23T04:27:50.997Z,99378.66
2023-04-23T04:30:17.721Z,99368.78
2023-04-23T04:32:45.873Z,99379.78
2023-04-23T04:35:15.636Z,99373.22
2023-04-23T04:37:44.355Z,99376.97
2023-04-23T04:40:11.854Z,99380.44
2023-04-23T04:42:39.351Z,99374.50
2023-04-23T04:45:06.905Z,99378.47
2023-04-23T04:47:33.731Z,99384.84
2023-04-23T04:50:00.650Z,99363.69
2023-04-23T04:52:27.910Z,99379.59
2023-04-23T04:54:54.966Z,99378.06
2023-04-23T04:57:23.037Z,99393.13
2023-04-23T04:59:50.436Z,99350.78
2023-04-23T05:02:17.236Z,99371.94
2023-04-23T05:04:44.242Z,99379.16
2023-04-23T05:07:11.226Z,99388.25
2023-04-23T05:09:37.996Z,99384.50
2023-04-23T05:12:07.548Z,99373.53
2023-04-23T05:14:34.451Z,99386.41
2023-04-23T05:17:01.874Z,99385.06
2023-04-23T05:19:28.637Z,99312.41
2023-04-23T05:21:55.480Z,99387.56
2023-04-23T05:24:22.854Z,99339.38
2023-04-23T05:26:49.748Z,99411.91
2023-04-23T05:29:19.585Z,99390.09
2023-04-23T05:31:46.862Z,99387.63
2023-04-23T05:34:13.585Z,99365.91
2023-04-23T05:36:40.344Z,99351.03
2023-04-23T05:39:07.261Z,99414.06
2023-04-23T05:41:37.486Z,99400.91
2023-04-23T05:44:04.749Z,99367.19
2023-04-23T05:46:31.956Z,99367.00
2023-04-23T05:48:59.149Z,99366.41
2023-04-23T05:51:26.973Z,99425.75
2023-04-23T05:53:54.326Z,99370.16
2023-04-23T05:56:21.863Z,99386.97
2023-04-23T05:58:49.360Z,99300.50
2023-04-23T06:01:16.407Z,99361.47
2023-04-23T06:03:45.953Z,99323.72
2023-04-23T06:06:17.312Z,99435.44
2023-04-23T06:08:45.049Z,99367.09
2023-04-23T06:11:11.964Z,99297.31
2023-04-23T06:13:44.072Z,99382.97
2023-04-23T06:16:11.438Z,99335.44
2023-04-23T06:18:39.454Z,99367.63
2023-04-23T06:21:06.994Z,99342.63
2023-04-23T06:23:34.634Z,99448.72
2023-04-23T06:26:02.039Z,99300.28
2023-04-23T06:28:29.203Z,99415.00
2023-04-23T06:30:56.288Z,99376.72
2023-04-23T06:33:23.499Z,99283.09
2023-04-23T06:35:50.758Z,99418.22
2023-04-23T06:38:19.064Z,99357.28
2023-04-23T06:40:46.828Z,99359.72
2023-04-23T06:43:14.878Z,99349.56
2023-04-23T06:45:41.994Z,99410.53
2023-04-23T06:48:09.154Z,99425.94
2023-04-23T06:50:36.717Z,99349.25
2023-04-23T06:53:03.832Z,99354.88
2023-04-23T06:55:31.435Z,99341.34
2023-04-23T06:57:58.782Z,99431.59
2023-04-23T07:00:26.041Z,99360.06
2023-04-23T07:02:53.048Z,99391.59
2023-04-23T07:05:20.324Z,99402.94
2023-04-23T07:07:47.481Z,99378.91
2023-04-23T07:10:16.277Z,99389.19
2023-04-23T07:12:45.112Z,99411.50
2023-04-23T07:15:12.459Z,99446.50
2023-04-23T07:17:39.982Z,99386.84
2023-04-23T07:20:08.795Z,99324.97
2023-04-23T07:22:36.116Z,99414.28
2023-04-23T07:25:04.590Z,99402.91
2023-04-23T07:27:31.682Z,99409.22
2023-04-23T07:29:58.628Z,99320.09
2023-04-23T07:32:28.493Z,99438.56
2023-04-23T07:34:58.738Z,99315.31
2023-04-23T07:37:26.084Z,99423.56
2023-04-23T07:39:54.466Z,99376.53
2023-04-23T07:42:21.721Z,99437.41
2023-04-23T07:44:48.588Z,99410.72
2023-04-23T07:47:15.656Z,99371.03
2023-04-23T07:49:43.163Z,99344.66
2023-04-23T07:52:10.594Z,99422.47
2023-04-23T07:54:37.934Z,99301.31
2023-04-23T07:57:04.820Z,99389.16
2023-04-23T07:59:31.572Z,99387.88
2023-04-23T08:01:58.404Z,99428.72
2023-04-23T08:04:25.823Z,99319.94
2023-04-23T08:06:52.843Z,99385.53
2023-04-23T08:09:19.626Z,99421.09
2023-04-23T08:11:46.570Z,99382.97
2023-04-23T08:14:13.499Z,99387.16
2023-04-23T08:16:40.632Z,99355.63
2023-04-23T08:19:07.759Z,99368.34
2023-04-23T08:21:34.800Z,99304.19
2023-04-23T08:24:03.404Z,99338.97
2023-04-23T08:26:31.159Z,99363.56
2023-04-23T08:28:58.042Z,99424.28
2023-04-23T08:31:26.796Z,99348.22
2023-04-23T08:33:55.066Z,99343.91
2023-04-23T08:36:25.069Z,99278.84
2023-04-23T08:38:52.275Z,99351.97
2023-04-23T08:41:21.467Z,99307.78
2023-04-23T08:43:53.269Z,99298.44
2023-04-23T08:46:20.620Z,99327.56
2023-04-23T08:48:48.512Z,99322.03
2023-04-23T08:51:19.656Z,99294.72
2023-04-23T08:53:50.118Z,99303.44
2023-04-23T08:56:17.744Z,99322.00
2023-04-23T08:58:46.025Z,99323.03
2023-04-23T09:01:13.053Z,99388.41
2023-04-23T09:03:41.214Z,99344.00
2023-04-23T09:06:08.917Z,99273.00
2023-04-23T09:08:36.419Z,99324.47
2023-04-23T09:11:04.554Z,99322.75
2023-04-23T09:13:32.456Z,99325.41
2023-04-23T09:15:59.499Z,99399.81
2023-04-23T09:18:27.133Z,99314.69
2023-04-23T09:20:54.022Z,99358.38
2023-04-23T09:23:22.744Z,99325.03
2023-04-23T09:25:49.895Z,99329.34
2023-04-23T09:28:17.377Z,99359.19
2023-04-23T09:30:45.705Z,99370.78
2023-04-23T09:33:13.649Z,99312.50
2023-04-23T09:35:42.661Z,99382.31
2023-04-23T09:38:10.891Z,99356.72
2023-04-23T09:40:38.871Z,99326.94
2023-04-23T09:43:07.757Z,99337.31
2023-04-23T09:45:35.639Z,99316.00
2023-04-23T09:48:02.897Z,99269.53
2023-04-23T09:50:39.368Z,99280.50
2023-04-23T09:53:08.453Z,99292.50
2023-04-23T09:55:42.048Z,99272.91
2023-04-23T09:58:15.474Z,99350.69
2023-04-23T10:00:42.887Z,99340.34
2023-04-23T10:03:11.436Z,99308.28
2023-04-23T10:05:59.413Z,99290.38
2023-04-23T10:08:28.527Z,99330.25
2023-04-23T10:11:09.532Z,99257.50
2023-04-23T10:13:42.013Z,99335.63
2023-04-23T10:16:21.769Z,99351.88
2023-04-23T10:18:53.377Z,99265.91
2023-04-23T10:21:21.135Z,99343.22
2023-04-23T10:23:49.116Z,99377.66
2023-04-23T10:26:17.034Z,99303.81
2023-04-23T10:28:48.328Z,99357.41
2023-04-23T10:31:16.281Z,99390.41
2023-04-23T10:33:56.141Z,99328.16
2023-04-23T10:36:29.423Z,99374.53
2023-04-23T10:39:00.738Z,99293.59
2023-04-23T10:41:34.102Z,99323.00
2023-04-23T10:44:01.266Z,99270.00
2023-04-23T10:46:29.837Z,99269.75
2023-04-23T10:49:08.051Z,99321.91
2023-04-23T10:52:17.125Z,99359.53
2023-04-23T10:54:23.331Z,99316.75
2023-04-23T10:56:59.163Z,99253.16
2023-04-23T10:59:27.077Z,99283.47
2023-04-23T11:01:53.942Z,99251.13
2023-04-23T11:04:26.337Z,99264.59
2023-04-23T11:07:07.689Z,99243.28
2023-04-23T11:09:43.355Z,99351.63
2023-04-23T11:12:28.597Z,99361.91
2023-04-23T11:14:57.282Z,99247.09
2023-04-23T11:17:26.380Z,99293.25
2023-04-23T11:20:14.030Z,99355.16
2023-04-23T11:22:44.749Z,99353.22
2023-04-23T11:25:14.172Z,99364.75
2023-04-23T11:27:45.205Z,99276.50
2023-04-23T11:30:17.289Z,99334.00
2023-04-23T11:32:49.748Z,99278.69
2023-04-23T11:35:18.578Z,99315.47
2023-04-23T11:37:46.865Z,99278.88
2023-04-23T11:40:19.410Z,99332.19
2023-04-23T11:42:51.194Z,99312.28
2023-04-23T11:45:29.203Z,99244.38
2023-04-23T11:47:58.375Z,99228.16
2023-04-23T11:50:28.209Z,99319.31
2023-04-23T11:52:55.534Z,99278.84
2023-04-23T11:55:23.888Z,99361.09
2023-04-23T11:57:52.859Z,99318.03
2023-04-23T12:00:21.844Z,99321.88
2023-04-23T12:02:58.785Z,99341.78
2023-04-23T12:05:31.310Z,99272.56
2023-04-23T12:08:10.318Z,99325.38
2023-04-23T12:10:53.094Z,99330.66
2023-04-23T12:13:22.808Z,99272.00
2023-04-23T12:15:52.707Z,99266.09
2023-04-23T12:18:20.209Z,99319.53
2023-04-23T12:20:47.232Z,99287.72
2023-04-23T12:23:14.467Z,99273.34
2023-04-23T12:25:42.635Z,99303.69
2023-04-23T12:28:09.805Z,99332.00
2023-04-23T12:30:43.566Z,99288.25
2023-04-23T12:33:12.158Z,99331.34
2023-04-23T12:35:46.058Z,99322.13
2023-04-23T12:38:26.931Z,99289.63
2023-04-23T12:40:57.894Z,99293.25
2023-04-23T12:43:26.629Z,99339.50
2023-04-23T12:45:56.948Z,99249.44
2023-04-23T12:48:24.001Z,99338.06
2023-04-23T12:50:51.129Z,99333.47
2023-04-23T12:53:18.562Z,99338.75
2023-04-23T12:55:46.007Z,99299.75
2023-04-23T12:58:13.086Z,99293.50
2023-04-23T13:00:40.214Z,99223.66
2023-04-23T13:03:08.334Z,99282.88
2023-04-23T13:05:35.459Z,99282.13
2023-04-23T13:08:02.686Z,99258.84
2023-04-23T13:10:31.120Z,99242.16
2023-04-23T13:12:58.274Z,99289.09
2023-04-23T13:15:26.933Z,99247.78
2023-04-23T13:17:54.291Z,99248.81
2023-04-23T13:20:22.122Z,99224.19
2023-04-23T13:22:49.168Z,99327.19
2023-04-23T13:25:16.333Z,99311.19
2023-04-23T13:27:43.520Z,99250.16
2023-04-23T13:30:11.386Z,99306.75
2023-04-23T13:32:38.707Z,99300.84
2023-04-23T13:35:06.106Z,99216.09
2023-04-23T13:37:34.516Z,99250.75
2023-04-23T13:40:01.685Z,99307.09
2023-04-23T13:42:29.062Z,99222.16
2023-04-23T13:44:57.200Z,99255.56
2023-04-23T13:47:24.411Z,99284.50
2023-04-23T13:49:52.090Z,99221.16
2023-04-23T13:52:19.644Z,99229.38
2023-04-23T13:54:49.333Z,99227.63
2023-04-23T13:57:16.385Z,99242.28
2023-04-23T13:59:46.170Z,99315.38
2023-04-23T14:02:14.390Z,99268.59
2023-04-23T14:04:41.717Z,99261.69
2023-04-23T14:07:09.348Z,99180.28
2023-04-23T14:09:36.404Z,99235.28
2023-04-23T14:12:04.496Z,99275.47
2023-04-23T14:14:31.974Z,99313.34
2023-04-23T14:17:02.050Z,99242.34
2023-04-23T14:19:30.748Z,99231.28
2023-04-23T14:21:57.877Z,99200.47
2023-04-23T14:24:29.269Z,99211.84
2023-04-23T14:26:57.134Z,99261.25
2023-04-23T14:29:41.892Z,99257.94
2023-04-23T14:32:09.304Z,99245.84
2023-04-23T14:34:36.482Z,99230.44
2023-04-23T14:37:04.462Z,99246.34
2023-04-23T14:39:31.730Z,99187.09
2023-04-23T14:41:58.837Z,99199.81
2023-04-23T14:44:28.655Z,99227.09
2023-04-23T14:46:55.947Z,99291.28
2023-04-23T14:49:23.156Z,99194.03
2023-04-23T14:51:54.373Z,99225.56
2023-04-23T14:54:22.589Z,99267.31
2023-04-23T14:56:50.374Z,99292.59
2023-04-23T14:59:17.612Z,99257.38
2023-04-23T15:01:44.859Z,99279.75
2023-04-23T15:04:13.376Z,99164.03
2023-04-23T15:06:44.416Z,99278.28
2023-04-23T15:09:11.441Z,99218.06
2023-04-23T15:11:39.354Z,99221.38
2023-04-23T15:14:20.741Z,99231.47
2023-04-23T15:16:49.310Z,99140.59
2023-04-23T15:19:18.393Z,99198.69
2023-04-23T15:21:46.469Z,99204.78
2023-04-23T15:24:13.907Z,99279.56
2023-04-23T15:26:41.022Z,99243.56
2023-04-23T15:29:10.762Z,99196.88
2023-04-23T15:31:39.029Z,99197.91
2023-04-23T15:34:09.463Z,99265.66
2023-04-23T15:36:38.043Z,99204.38
2023-04-23T15:39:06.571Z,99252.91
2023-04-23T15:41:34.273Z,99278.41
2023-04-23T15:44:02.363Z,99146.16
2023-04-23T15:46:29.489Z,99190.09
2023-04-23T15:48:56.491Z,99172.19
2023-04-23T15:51:23.827Z,99231.16
2023-04-23T15:53:51.735Z,99235.13
2023-04-23T15:56:18.954Z,99208.66
2023-04-23T15:58:46.239Z,99162.22
2023-04-23T16:01:13.148Z,99188.34
2023-04-23T16:03:44.020Z,99172.19
2023-04-23T16:06:17.541Z,99192.00
2023-04-23T16:08:44.377Z,99180.53
2023-04-23T16:11:13.456Z,99216.03
2023-04-23T16:13:40.454Z,99195.03
2023-04-23T16:16:14.910Z,99139.50
2023-04-23T16:18:41.761Z,99147.72
2023-04-23T16:21:08.842Z,99222.22
2023-04-23T16:23:36.215Z,99148.88
2023-04-23T16:26:08.313Z,99203.41
2023-04-23T16:28:35.966Z,99142.09
2023-04-23T16:31:03.862Z,99232.34
2023-04-23T16:33:31.199Z,99219.97
2023-04-23T16:35:59.798Z,99153.56
2023-04-23T16:38:26.740Z,99228.28
2023-04-23T16:40:53.779Z,99174.88
2023-04-23T16:43:20.854Z,99195.59
2023-04-23T16:45:48.110Z,99275.03
2023-04-23T16:48:16.872Z,99150.56
2023-04-23T16:50:44.595Z,99147.63
2023-04-23T16:53:11.846Z,99227.59
2023-04-23T16:55:39.132Z,99268.25
2023-04-23T16:58:06.959Z,99274.84
2023-04-23T17:00:33.929Z,99243.47
2023-04-23T17:03:02.071Z,99278.00
2023-04-23T17:05:32.272Z,99223.16
2023-04-23T17:08:02.298Z,99213.28
2023-04-23T17:10:29.452Z,99212.72
2023-04-23T17:12:56.684Z,99253.22
2023-04-23T17:15:23.751Z,99252.72
2023-04-23T17:17:51.424Z,99295.22
2023-04-23T17:20:18.405Z,99188.34
2023-04-23T17:22:46.221Z,99232.09
2023-04-23T17:25:13.834Z,99234.38
2023-04-23T17:27:40.901Z,99292.69
2023-04-23T17:30:08.613Z,99218.88
2023-04-23T17:32:35.801Z,99193.31
2023-04-23T17:35:10.317Z,99264.91
2023-04-23T17:37:37.694Z,99304.19
2023-04-23T17:40:06.095Z,99297.09
2023-04-23T17:42:33.712Z,99284.44
2023-04-23T17:45:00.876Z,99268.25
2023-04-23T17:47:28.101Z,99328.22
2023-04-23T17:49:55.329Z,99336.53
2023-04-23T17:52:22.560Z,99202.41
2023-04-23T17:54:50.657Z,99282.69
2023-04-23T17:57:19.067Z,99210.31
2023-04-23T17:59:46.692Z,99247.03
2023-04-23T18:02:14.390Z,99344.63
2023-04-23T18:04:41.717Z,99227.94
2023-04-23T18:07:09.152Z,99293.03
2023-04-23T18:09:38.959Z,99286.38
2023-04-23T18:12:09.285Z,99215.66
2023-04-23T18:14:36.641Z,99202.09
2023-04-23T18:17:04.244Z,99272.00
2023-04-23T18:19:31.472Z,99300.28
2023-04-23T18:22:02.652Z,99255.38
2023-04-23T18:24:32.258Z,99245.34
2023-04-23T18:27:00.173Z,99196.97
2023-04-23T18:29:29.786Z,99284.47
2023-04-23T18:31:57.157Z,99351.53
2023-04-23T18:34:25.326Z,99267.00
2023-04-23T18:36:55.390Z,99326.66
2023-04-23T18:39:23.136Z,99246.72
2023-04-23T18:41:50.842Z,99355.69
2023-04-23T18:44:18.393Z,99336.41
2023-04-23T18:46:45.364Z,99305.84
2023-04-23T18:49:32.125Z,99335.84
2023-04-23T18:51:59.498Z,99262.66
2023-04-23T18:54:27.992Z,99273.22
2023-04-23T18:56:58.586Z,99352.78
2023-04-23T18:59:25.857Z,99362.97
2023-04-23T19:01:53.634Z,99303.13
2023-04-23T19:04:21.791Z,99248.00
2023-04-23T19:06:49.260Z,99275.25
2023-04-23T19:09:16.669Z,99262.31
2023-04-23T19:11:43.880Z,99217.66
2023-04-23T19:14:11.044Z,99343.47
2023-04-23T19:16:38.090Z,99312.56
2023-04-23T19:19:05.155Z,99271.38
2023-04-23T19:21:35.384Z,99314.19
2023-04-23T19:24:02.353Z,99272.19
2023-04-23T19:26:29.439Z,99292.47
2023-04-23T19:28:56.837Z,99258.97
2023-04-23T19:31:24.094Z,99191.00
2023-04-23T19:33:51.181Z,99279.63
2023-04-23T19:36:22.905Z,99360.41
2023-04-23T19:38:50.173Z,99247.78
2023-04-23T19:41:17.204Z,99282.50
2023-04-23T19:43:44.493Z,99264.94
2023-04-23T19:46:12.135Z,99252.44
2023-04-23T19:48:39.272Z,99219.16
2023-04-23T19:51:06.812Z,99295.09
2023-04-23T19:53:33.785Z,99240.59
2023-04-23T19:56:00.950Z,99296.31
2023-04-23T19:58:28.064Z,99298.19
2023-04-23T20:00:57.530Z,99217.34
2023-04-23T20:03:41.179Z,99179.25
2023-04-23T20:06:16.184Z,99334.38
2023-04-23T20:09:07.556Z,99203.66
2023-04-23T20:11:36.114Z,99273.19
2023-04-23T20:14:04.787Z,99335.19
2023-04-23T20:16:38.242Z,99241.63
2023-04-23T20:19:13.791Z,99206.09
2023-04-23T20:21:42.914Z,99203.91
2023-04-23T20:24:17.076Z,99328.06
2023-04-23T20:26:46.831Z,99322.81
2023-04-23T20:29:14.009Z,99213.28
2023-04-23T20:31:46.698Z,99334.22
2023-04-23T20:34:13.766Z,99262.78
2023-04-23T20:36:41.222Z,99344.38
2023-04-23T20:39:32.771Z,99283.84
2023-04-23T20:42:01.221Z,99246.13
2023-04-23T20:44:28.430Z,99345.06
2023-04-23T20:46:57.983Z,99318.47
2023-04-23T20:49:27.798Z,99329.22
2023-04-23T20:51:54.510Z,99295.25
2023-04-23T20:54:21.197Z,99290.97
2023-04-23T20:56:47.893Z,99310.75
2023-04-23T20:59:14.827Z,99321.69
2023-04-23T21:01:41.521Z,99332.34
2023-04-23T21:04:08.468Z,99309.59
2023-04-23T21:06:57.735Z,99324.50
2023-04-23T21:09:24.662Z,99334.16
2023-04-23T21:11:51.502Z,99261.34
2023-04-23T21:14:18.577Z,99270.81
2023-04-23T21:16:45.628Z,99293.44
2023-04-23T21:19:13.794Z,99236.94
2023-04-23T21:21:40.920Z,99338.13
2023-04-23T21:24:08.349Z,99251.84
2023-04-23T21:26:39.633Z,99297.47
2023-04-23T21:29:06.779Z,99260.06
2023-04-23T21:31:43.250Z,99291.31
2023-04-23T21:34:10.721Z,99362.72
2023-04-23T21:36:38.160Z,99341.97
2023-04-23T21:39:05.166Z,99241.81
2023-04-23T21:41:32.245Z,99249.63
2023-04-23T21:43:59.179Z,99242.59
2023-04-23T21:46:27.426Z,99211.00
2023-04-23T21:48:54.223Z,99291.16
2023-04-23T21:51:22.630Z,99298.94
2023-04-23T21:53:52.333Z,99313.22
2023-04-23T21:56:18.959Z,99326.41
2023-04-23T21:58:45.934Z,99325.66
2023-04-23T22:01:12.648Z,99310.59
2023-04-23T22:03:42.797Z,99330.38
2023-04-23T22:06:12.959Z,99338.00
2023-04-23T22:08:40.528Z,99299.19
2023-04-23T22:11:08.400Z,99320.69
2023-04-23T22:13:36.073Z,99329.94
2023-04-23T22:16:06.532Z,99335.03
2023-04-23T22:18:38.706Z,99323.22
2023-04-23T22:21:08.344Z,99321.41
2023-04-23T22:23:35.525Z,99334.06
2023-04-23T22:26:02.323Z,99329.31
2023-04-23T22:28:28.899Z,99293.72
2023-04-23T22:30:55.611Z,99312.50
2023-04-23T22:33:22.475Z,99311.97
2023-04-23T22:35:49.085Z,99308.75
2023-04-23T22:38:15.919Z,99319.44
2023-04-23T22:40:42.601Z,99319.38
2023-04-23T22:43:09.401Z,99306.75
2023-04-23T22:45:36.130Z,99305.81
2023-04-23T22:48:03.351Z,99325.22
2023-04-23T22:50:30.959Z,99312.50
2023-04-23T22:52:57.625Z,99322.00
2023-04-23T22:55:24.329Z,99322.91
2023-04-23T22:57:51.040Z,99318.78
2023-04-23T23:00:17.700Z,99309.44
2023-04-23T23:02:44.373Z,99314.91
2023-04-23T23:05:11.124Z,99324.03
2023-04-23T23:07:38.605Z,99325.56
2023-04-23T23:10:08.825Z,99323.97
2023-04-23T23:12:36.603Z,99321.56
2023-04-23T23:15:03.777Z,99324.81
2023-04-23T23:17:30.509Z,99316.78
2023-04-23T23:19:57.284Z,99327.19
2023-04-23T23:22:23.989Z,99313.03
2023-04-23T23:24:50.815Z,99319.88
2023-04-23T23:27:17.495Z,99329.66
2023-04-23T23:29:44.469Z,99325.19
2023-04-23T23:32:11.347Z,99331.91
2023-04-23T23:34:38.280Z,99317.81
2023-04-23T23:37:04.931Z,99315.03
2023-04-23T23:39:32.039Z,99250.63
2023-04-23T23:41:59.849Z,99271.44
2023-04-23T23:44:26.939Z,99247.84
2023-04-23T23:46:53.913Z,99260.88
2023-04-23T23:49:21.228Z,99234.69
2023-04-23T23:51:49.057Z,99321.88
2023-04-23T23:54:16.646Z,99194.50
2023-04-23T23:56:43.727Z,99274.72
2023-04-23T23:59:11.248Z,99156.88
